Time;durP1;ratioP1;P1;durP2;ratioP2;P2;SDS_P1;SDS_P2;PMS_P1;PMS_P2;Temp;Humidity;BMP_temperature;BMP_pressure;BME280_temperature;BME280_humidity;BME280_pressure;Samples;Min_cycle;Max_cycle;Signal;HPM_P1;HPM_P2
2021/11/06 00:01:30;;;;;;;16.17;8.52;;;;;;;14.72;66.33;101818.28;4888762;29;20472;-96
2021/11/06 00:03:55;;;;;;;12.70;8.20;;;;;;;14.80;66.45;101804.56;4878098;29;20083;-96
2021/11/06 00:06:21;;;;;;;14.52;6.97;;;;;;;14.98;65.56;101800.72;4866724;29;20021;-96
2021/11/06 00:08:46;;;;;;;21.20;8.88;;;;;;;15.03;65.39;101811.03;4868674;29;20029;-96
2021/11/06 00:11:12;;;;;;;11.70;6.97;;;;;;;15.05;65.30;101804.69;4869604;29;20028;-96
2021/11/06 00:13:37;;;;;;;12.80;7.20;;;;;;;15.14;65.11;101797.09;4871460;29;20168;-96
2021/11/06 00:16:02;;;;;;;14.15;8.13;;;;;;;15.19;65.02;101795.03;4874253;29;20057;-96
2021/11/06 00:18:28;;;;;;;14.23;8.60;;;;;;;15.11;65.39;101784.94;4876436;29;20029;-96
2021/11/06 00:20:53;;;;;;;15.25;8.68;;;;;;;15.11;65.17;101789.38;4878510;29;20097;-96
2021/11/06 00:23:18;;;;;;;16.33;8.30;;;;;;;15.10;65.37;101790.31;4877501;29;20033;-96
2021/11/06 00:25:44;;;;;;;13.93;7.57;;;;;;;15.09;65.33;101786.84;4871509;29;20036;-96
2021/11/06 00:28:09;;;;;;;16.70;8.52;;;;;;;15.11;65.18;101784.09;4872666;29;20033;-96
2021/11/06 00:30:35;;;;;;;16.70;7.95;;;;;;;15.13;65.27;101790.97;4870219;29;20032;-96
2021/11/06 00:33:00;;;;;;;13.60;7.63;;;;;;;15.06;65.18;101794.97;4872258;29;20070;-96
2021/11/06 00:35:26;;;;;;;13.10;7.30;;;;;;;15.13;65.14;101782.19;4871934;29;20025;-96
2021/11/06 00:37:52;;;;;;;17.48;7.85;;;;;;;15.11;65.36;101784.09;4873626;29;20077;-96
2021/11/06 00:40:18;;;;;;;12.30;7.18;;;;;;;15.17;65.37;101789.81;4873664;29;20061;-96
2021/11/06 00:42:44;;;;;;;10.35;6.93;;;;;;;15.11;65.48;101786.75;4874499;29;20045;-96
2021/11/06 00:45:10;;;;;;;11.77;6.43;;;;;;;15.18;65.07;101788.84;4873481;29;20026;-96
2021/11/06 00:47:37;;;;;;;13.60;7.20;;;;;;;15.00;65.13;101796.19;4877706;29;20028;-96
2021/11/06 00:50:05;;;;;;;12.10;7.07;;;;;;;15.08;65.38;101804.47;4896397;29;20021;-96
2021/11/06 00:52:30;;;;;;;14.02;7.20;;;;;;;14.85;65.77;101807.78;4898736;29;20033;-96
2021/11/06 00:54:56;;;;;;;12.45;6.60;;;;;;;14.88;66.23;101805.75;4900161;29;20096;-94
2021/11/06 00:57:21;;;;;;;10.77;6.13;;;;;;;15.12;65.72;101810.44;4900247;29;20029;-96
2021/11/06 00:59:46;;;;;;;15.20;7.07;;;;;;;15.02;65.52;101807.53;4900070;29;20033;-96
2021/11/06 01:02:12;;;;;;;10.95;6.13;;;;;;;15.16;65.12;101811.91;4901145;29;20165;-96
2021/11/06 01:04:37;;;;;;;11.50;5.93;;;;;;;15.17;65.01;101818.94;4899800;29;20025;-96
2021/11/06 01:07:03;;;;;;;13.18;6.63;;;;;;;15.05;65.48;101817.91;4892519;29;20037;-95
2021/11/06 01:09:29;;;;;;;13.07;6.35;;;;;;;15.13;65.36;101806.84;4880927;29;20584;-96
2021/11/06 01:11:54;;;;;;;10.98;5.68;;;;;;;15.23;65.09;101801.81;4881708;29;20085;-96
2021/11/06 01:14:20;;;;;;;11.27;5.40;;;;;;;15.23;64.97;101804.44;4883637;29;20096;-96
2021/11/06 01:16:45;;;;;;;15.40;5.65;;;;;;;15.04;65.61;101794.22;4882651;29;20050;-96
2021/11/06 01:19:11;;;;;;;15.90;6.05;;;;;;;15.03;65.71;101790.72;4881917;29;20029;-96
2021/11/06 01:21:37;;;;;;;9.82;5.38;;;;;;;15.11;65.65;101787.59;4880217;29;20025;-96
2021/11/06 01:24:03;;;;;;;7.60;5.00;;;;;;;14.88;66.54;101787.25;4880183;29;20106;-96
2021/11/06 01:26:29;;;;;;;7.05;4.82;;;;;;;15.03;66.30;101772.22;4880719;29;20038;-96
2021/11/06 01:28:54;;;;;;;9.43;4.57;;;;;;;15.10;66.19;101774.44;4875963;29;20033;-96
2021/11/06 01:31:19;;;;;;;6.25;4.55;;;;;;;14.97;66.16;101775.25;4876241;29;20123;-96
2021/11/06 01:33:45;;;;;;;8.48;4.32;;;;;;;14.85;66.66;101779.53;4876506;29;20033;-96
2021/11/06 01:36:10;;;;;;;8.07;4.15;;;;;;;15.02;66.39;101783.72;4877426;29;20097;-96
2021/11/06 01:38:35;;;;;;;5.63;3.88;;;;;;;15.10;66.52;101782.38;4877293;29;20041;-96
2021/11/06 01:41:01;;;;;;;12.07;4.18;;;;;;;14.99;66.30;101778.66;4874240;29;20108;-96
2021/11/06 01:43:26;;;;;;;7.63;4.00;;;;;;;15.06;66.57;101772.00;4874173;29;20089;-96
2021/11/06 01:46:00;;;;;;;7.80;4.28;;;;;;;15.08;66.42;101771.91;4877939;29;20057;-96
2021/11/06 01:48:27;;;;;;;6.20;4.70;;;;;;;14.93;66.88;101772.88;4877861;29;20040;-96
2021/11/06 01:50:53;;;;;;;8.73;4.82;;;;;;;15.06;66.20;101774.63;4876890;29;20114;-96
2021/11/06 01:53:19;;;;;;;8.32;4.78;;;;;;;15.08;66.18;101777.19;4885708;29;20018;-96
2021/11/06 01:55:46;;;;;;;5.60;4.07;;;;;;;14.98;66.32;101771.66;4887737;29;20021;-96
2021/11/06 01:58:11;;;;;;;8.45;4.75;;;;;;;14.98;66.18;101766.34;4887728;29;20021;-94
2021/11/06 02:00:37;;;;;;;12.15;4.50;;;;;;;15.19;65.60;101757.97;4887529;29;20044;-96
2021/11/06 02:03:02;;;;;;;10.93;4.68;;;;;;;15.14;65.96;101755.63;4900138;29;20412;-95
2021/11/06 02:05:28;;;;;;;7.90;3.92;;;;;;;15.17;65.62;101754.59;4905656;29;20025;-96
2021/11/06 02:07:53;;;;;;;13.07;4.47;;;;;;;14.92;66.32;101744.75;4906679;29;20029;-96
2021/11/06 02:10:19;;;;;;;7.82;4.75;;;;;;;15.06;65.71;101742.88;4906773;29;20053;-96
2021/11/06 02:12:46;;;;;;;13.75;4.45;;;;;;;14.93;65.95;101744.66;4906561;29;20076;-96
2021/11/06 02:15:15;;;;;;;8.38;4.07;;;;;;;14.96;65.80;101747.09;4906665;29;20017;-96
2021/11/06 02:17:42;;;;;;;9.13;3.85;;;;;;;14.95;65.62;101726.03;4981995;23;20032;-96
2021/11/06 02:20:09;;;;;;;10.10;4.32;;;;;;;14.74;65.83;101728.28;4906893;29;20093;-96
2021/11/06 02:22:35;;;;;;;9.15;4.25;;;;;;;14.65;66.39;101727.94;5026497;23;20052;-96
2021/11/06 02:25:01;;;;;;;7.95;3.60;;;;;;;14.82;66.02;101723.34;4906311;29;20049;-96
2021/11/06 02:27:27;;;;;;;7.57;3.63;;;;;;;14.85;65.85;101725.81;4963506;23;20041;-96
2021/11/06 02:29:52;;;;;;;7.03;3.30;;;;;;;14.77;66.40;101721.00;4926148;23;20077;-96
2021/11/06 02:32:18;;;;;;;7.20;3.47;;;;;;;14.64;66.82;101742.09;4959530;23;20056;-94
2021/11/06 02:34:44;;;;;;;9.98;3.70;;;;;;;14.85;66.42;101731.09;5029319;23;20036;-94
2021/11/06 02:39:45;;;;;;;5.72;3.60;;;;;;;14.81;66.32;101732.22;4960545;23;20037;-96
2021/11/06 02:42:11;;;;;;;5.57;3.60;;;;;;;14.85;66.41;101746.97;4906153;29;20024;-96
2021/11/06 02:44:37;;;;;;;7.20;3.30;;;;;;;14.67;66.54;101733.97;4906044;29;20009;-96
2021/11/06 02:47:04;;;;;;;8.70;3.47;;;;;;;14.76;66.05;101735.16;4906113;29;20023;-96
2021/11/06 02:49:30;;;;;;;7.72;4.10;;;;;;;14.84;66.15;101737.31;4906261;29;20126;-96
2021/11/06 02:51:56;;;;;;;9.23;4.47;;;;;;;14.71;66.09;101726.69;4900592;29;20060;-96
2021/11/06 02:54:22;;;;;;;6.57;3.47;;;;;;;14.59;66.21;101723.06;4900328;29;20092;-96
2021/11/06 02:56:47;;;;;;;12.43;4.85;;;;;;;14.76;65.90;101723.75;4899232;29;20029;-96
2021/11/06 02:59:13;;;;;;;7.70;3.50;;;;;;;14.74;65.96;101725.66;4896295;29;20024;-96
2021/11/06 03:01:39;;;;;;;6.40;3.30;;;;;;;14.87;65.49;101721.25;4900374;29;20084;-96
2021/11/06 03:04:12;;;;;;;8.02;3.60;;;;;;;14.65;66.07;101727.06;4939098;23;20051;-96
2021/11/06 03:06:39;;;;;;;5.63;3.25;;;;;;;14.78;65.88;101724.50;5035883;23;20057;-96
2021/11/06 03:09:06;;;;;;;5.57;3.53;;;;;;;14.79;66.10;101732.34;4942646;23;20089;-96
2021/11/06 03:11:34;;;;;;;6.75;3.47;;;;;;;14.89;65.37;101740.53;4900809;29;20038;-96
2021/11/06 03:14:02;;;;;;;5.75;3.47;;;;;;;14.64;65.74;101730.66;4900629;29;20025;-95
2021/11/06 03:16:27;;;;;;;7.45;3.22;;;;;;;14.78;65.53;101727.13;4898659;29;20063;-96
2021/11/06 03:18:53;;;;;;;5.07;3.38;;;;;;;14.70;65.15;101724.16;5135430;23;20057;-94
2021/11/06 03:21:20;;;;;;;7.88;3.00;;;;;;;14.73;65.16;101714.22;4917626;29;20024;-96
2021/11/06 03:23:46;;;;;;;5.60;2.72;;;;;;;14.58;65.33;101710.75;4921793;29;20088;-95
2021/11/06 03:26:12;;;;;;;7.35;3.20;;;;;;;14.60;65.47;101708.03;4920641;29;20017;-94
2021/11/06 03:28:38;;;;;;;6.68;2.80;;;;;;;14.58;65.69;101705.47;4921112;29;20039;-96
2021/11/06 03:31:04;;;;;;;8.05;3.53;;;;;;;14.73;65.51;101703.66;4918115;29;20032;-96
2021/11/06 03:33:30;;;;;;;5.95;3.13;;;;;;;14.79;64.96;101705.91;4913917;29;20048;-96
2021/11/06 03:35:56;;;;;;;6.82;2.80;;;;;;;14.80;65.43;101706.75;4915872;29;20029;-96
2021/11/06 03:38:22;;;;;;;5.50;2.72;;;;;;;14.90;64.06;101705.19;4914593;29;20032;-96
2021/11/06 03:40:48;;;;;;;7.97;2.40;;;;;;;14.96;64.60;101699.50;4915546;29;20052;-96
2021/11/06 03:43:14;;;;;;;6.60;2.80;;;;;;;14.67;65.31;101694.31;4919059;29;20033;-96
2021/11/06 03:45:40;;;;;;;6.72;2.38;;;;;;;14.77;65.10;101699.00;4918823;29;20028;-96
2021/11/06 03:48:06;;;;;;;13.10;2.75;;;;;;;14.83;64.72;101701.22;4916242;29;20044;-96
2021/11/06 03:50:32;;;;;;;5.22;2.30;;;;;;;14.98;64.21;101702.03;4917347;29;20065;-96
2021/11/06 03:52:57;;;;;;;5.28;2.58;;;;;;;14.88;64.71;101691.22;4917410;29;20051;-96
2021/11/06 03:55:23;;;;;;;8.15;2.70;;;;;;;14.86;64.11;101695.75;4911933;29;20033;-96
2021/11/06 03:57:49;;;;;;;6.90;1.98;;;;;;;14.79;64.79;101692.69;4923848;29;20045;-96
2021/11/06 04:02:50;;;;;;;5.05;2.08;;;;;;;14.85;64.68;101686.16;5467227;23;20057;-96
2021/11/06 04:05:16;;;;;;;3.75;2.40;;;;;;;14.82;64.81;101687.16;4900851;29;20081;-96
2021/11/06 04:07:42;;;;;;;5.05;2.72;;;;;;;14.91;64.60;101680.44;4900707;29;20518;-96
2021/11/06 04:10:09;;;;;;;4.70;2.38;;;;;;;15.01;63.97;101680.69;4903346;29;20028;-96
2021/11/06 04:17:45;;;;;;;6.18;2.58;;;;;;;14.88;64.59;101684.13;5365342;23;20114;-96
2021/11/06 04:20:11;;;;;;;6.30;2.30;;;;;;;14.93;64.38;101691.78;4925682;23;20105;-96
2021/11/06 04:25:12;;;;;;;4.13;2.38;;;;;;;15.04;64.46;101685.75;5246503;23;20523;-96
2021/11/06 04:27:38;;;;;;;3.90;2.42;;;;;;;14.97;63.85;101680.03;4901430;29;20089;-96
2021/11/06 04:30:04;;;;;;;4.68;2.63;;;;;;;15.04;63.84;101677.81;4901694;29;20029;-96
2021/11/06 04:32:30;;;;;;;8.00;2.55;;;;;;;15.01;64.25;101685.97;4899584;29;20024;-96
2021/11/06 04:34:56;;;;;;;5.22;1.88;;;;;;;14.96;64.53;101683.63;4895845;29;20029;-96
2021/11/06 04:37:21;;;;;;;6.15;2.28;;;;;;;14.63;65.58;101676.97;4899496;29;20029;-96
2021/11/06 04:39:47;;;;;;;7.93;2.10;;;;;;;14.91;64.75;101680.44;4901734;29;20036;-96
2021/11/06 04:42:12;;;;;;;4.00;1.77;;;;;;;14.59;65.56;101680.75;4901206;29;20045;-96
2021/11/06 04:44:38;;;;;;;4.50;1.80;;;;;;;14.81;65.20;101689.91;4903393;29;20017;-96
2021/11/06 04:47:04;;;;;;;8.38;2.15;;;;;;;14.47;66.49;101689.41;4902908;29;20036;-96
2021/11/06 04:49:29;;;;;;;5.65;2.35;;;;;;;14.66;66.16;101683.84;4897359;29;20040;-96
2021/11/06 04:51:55;;;;;;;4.80;2.08;;;;;;;14.81;65.74;101688.13;4894056;29;20474;-96
2021/11/06 04:54:21;;;;;;;7.32;2.17;;;;;;;14.79;65.86;101694.44;4898122;29;20013;-96
2021/11/06 04:56:49;;;;;;;6.53;2.17;;;;;;;14.75;65.44;101687.66;4917899;29;20016;-96
2021/11/06 05:01:50;;;;;;;3.85;2.00;;;;;;;14.73;66.64;101687.78;4918641;23;20053;-96
2021/11/06 05:22:22;;;;;;;3.17;1.83;;;;;;;14.57;66.74;101658.84;5208967;23;20044;-96
2021/11/06 05:24:48;;;;;;;2.58;1.77;;;;;;;14.27;67.85;101654.53;4904825;29;20053;-96
2021/11/06 05:27:13;;;;;;;4.85;1.58;;;;;;;14.14;68.16;101652.78;4921808;29;20037;-96
2021/11/06 05:29:39;;;;;;;5.10;2.40;;;;;;;14.50;66.87;101654.03;4921535;29;20073;-96
2021/11/06 05:32:05;;;;;;;2.80;1.80;;;;;;;14.56;67.16;101667.72;4921349;29;20016;-96
2021/11/06 05:39:40;;;;;;;9.35;2.58;;;;;;;14.56;66.48;101648.34;4936783;23;20036;-96
2021/11/06 05:42:06;;;;;;;7.45;2.38;;;;;;;14.68;66.39;101637.84;4907020;29;20075;-96
2021/11/06 05:44:31;;;;;;;5.55;2.10;;;;;;;14.47;67.03;101636.56;4917422;29;20013;-96
2021/11/06 05:46:57;;;;;;;3.35;1.95;;;;;;;14.65;66.12;101643.34;4919317;29;20114;-96
2021/11/06 05:49:23;;;;;;;5.32;2.28;;;;;;;14.67;66.23;101637.94;4912490;29;20025;-96
2021/11/06 05:59:28;;;;;;;3.25;1.88;;;;;;;14.64;66.54;101646.94;4876931;29;20471;-96
2021/11/06 06:19:58;;;;;;;4.30;2.65;;;;;;;14.68;66.14;101623.78;4870109;29;20078;-96
2021/11/06 06:22:24;;;;;;;4.18;1.90;;;;;;;14.54;66.28;101621.19;4876576;29;20025;-96
2021/11/06 06:24:50;;;;;;;6.60;2.30;;;;;;;14.51;66.90;101629.28;4887601;29;20399;-96
2021/11/06 06:27:17;;;;;;;5.85;2.80;;;;;;;14.76;66.52;101639.16;4870648;29;20029;-96
2021/11/06 06:29:42;;;;;;;6.05;2.58;;;;;;;14.72;66.72;101633.22;4871064;29;20033;-96
2021/11/06 06:34:43;;;;;;;5.90;2.00;;;;;;;14.84;65.67;101620.97;4987368;23;20044;-96
2021/11/06 06:37:08;;;;;;;8.55;2.08;;;;;;;15.00;65.71;101637.50;4943364;29;20039;-96
2021/11/06 06:39:34;;;;;;;3.63;1.60;;;;;;;14.82;65.83;101622.88;4941101;29;20040;-96
2021/11/06 06:42:00;;;;;;;4.25;1.70;;;;;;;15.06;65.17;101631.78;4943345;29;20024;-96
2021/11/06 07:07:42;;;;;;;6.53;2.22;;;;;;;14.82;65.30;101625.53;2655849;23;20256;-86
2021/11/06 07:20:28;;;;;;;4.80;1.75;;;;;;;14.98;64.90;101628.00;915092;23;20309;-93
2021/11/06 07:22:54;;;;;;;5.57;2.40;;;;;;;14.98;64.71;101633.28;4923770;23;20037;-96
2021/11/06 07:25:21;;;;;;;5.38;1.83;;;;;;;14.86;65.71;101629.66;5709176;23;20041;-94
2021/11/06 07:27:46;;;;;;;5.18;2.20;;;;;;;15.00;64.90;101642.78;4902235;29;20112;-94
2021/11/06 07:30:12;;;;;;;4.72;1.80;;;;;;;14.91;65.20;101632.84;4902692;29;20085;-95
2021/11/06 07:32:38;;;;;;;5.03;2.00;;;;;;;14.88;65.85;101623.31;4902862;29;20480;-95
2021/11/06 07:35:05;;;;;;;4.22;2.05;;;;;;;14.78;65.31;101629.31;4917026;29;20071;-95
2021/11/06 07:42:50;;;;;;;3.83;2.25;;;;;;;14.44;66.95;101634.13;4937122;23;20076;-95
2021/11/06 07:45:19;;;;;;;5.68;2.33;;;;;;;14.81;66.10;101644.97;5117239;23;20160;-95
2021/11/06 07:50:20;;;;;;;4.07;2.10;;;;;;;14.64;66.36;101640.81;4892678;29;20045;-94
2021/11/06 07:52:46;;;;;;;5.97;2.22;;;;;;;14.85;66.00;101630.63;5211123;23;20112;-96
2021/11/06 07:55:12;;;;;;;7.10;2.45;;;;;;;14.75;66.28;101640.09;4897449;29;20045;-96
2021/11/06 07:57:38;;;;;;;6.43;2.17;;;;;;;14.89;65.53;101637.41;4899134;29;20096;-96
2021/11/06 08:00:08;;;;;;;5.85;1.92;;;;;;;14.86;66.28;101642.88;4894222;29;20502;-96
2021/11/06 08:07:45;;;;;;;5.28;2.25;;;;;;;14.86;66.39;101637.59;5032806;23;20061;-96
2021/11/06 08:10:11;;;;;;;3.38;1.92;;;;;;;14.75;66.78;101634.78;5304603;23;20301;-93
2021/11/06 08:25:32;;;;;;;7.60;2.35;;;;;;;15.11;65.25;101643.91;5553280;23;20056;-96
2021/11/06 08:27:58;;;;;;;4.68;2.63;;;;;;;15.19;65.07;101636.28;5453107;23;20049;-96
2021/11/06 08:30:25;;;;;;;4.18;2.22;;;;;;;15.20;64.93;101638.81;4897244;29;20037;-96
2021/11/06 08:32:52;;;;;;;8.93;2.65;;;;;;;15.12;65.72;101629.69;5664115;23;20281;-96
2021/11/06 08:35:18;;;;;;;6.45;1.85;;;;;;;15.21;65.28;101634.38;5224124;23;20059;-96
2021/11/06 08:37:44;;;;;;;4.18;2.00;;;;;;;15.16;65.64;101647.06;5199931;23;20031;-96
2021/11/06 08:40:11;;;;;;;6.90;1.67;;;;;;;15.40;65.46;101666.56;4891171;29;20064;-96
2021/11/06 08:42:38;;;;;;;3.65;1.63;;;;;;;15.24;65.45;101644.72;4890085;29;20049;-96
2021/11/06 08:45:06;;;;;;;6.65;1.88;;;;;;;15.39;65.03;101651.63;5255863;23;20049;-95
2021/11/06 08:47:32;;;;;;;9.00;1.80;;;;;;;15.51;64.66;101647.28;4903318;29;20028;-94
2021/11/06 08:49:57;;;;;;;5.00;1.40;;;;;;;15.38;64.92;101655.25;4903743;29;20035;-96
2021/11/06 08:52:23;;;;;;;3.78;1.27;;;;;;;15.17;65.51;101659.34;4906299;29;20024;-96
2021/11/06 08:54:49;;;;;;;6.15;1.40;;;;;;;15.26;65.21;101654.28;4903614;29;20033;-95
2021/11/06 08:57:17;;;;;;;2.55;1.60;;;;;;;15.26;65.46;101650.78;4904861;29;20028;-96
2021/11/06 08:59:43;;;;;;;3.55;1.20;;;;;;;15.65;64.51;101659.56;4903858;29;20117;-93
2021/11/06 09:02:10;;;;;;;3.10;1.20;;;;;;;15.15;64.93;101656.81;4897578;29;20108;-93
2021/11/06 09:04:35;;;;;;;6.05;1.10;;;;;;;15.41;65.17;101660.31;4898063;29;20480;-95
2021/11/06 09:07:01;;;;;;;1.60;0.85;;;;;;;15.61;64.52;101645.69;4899942;29;20061;-92
2021/11/06 09:09:26;;;;;;;2.42;1.10;;;;;;;15.57;64.37;101653.97;4904586;29;20382;-93
2021/11/06 09:11:53;;;;;;;3.85;1.20;;;;;;;15.75;63.85;101660.66;4920020;29;20078;-93
2021/11/06 09:14:19;;;;;;;9.27;1.65;;;;;;;15.46;64.39;101657.34;4897651;29;20043;-93
2021/11/06 09:16:45;;;;;;;2.53;0.80;;;;;;;14.93;66.42;101667.09;4897325;29;20107;-94
2021/11/06 09:19:11;;;;;;;4.75;1.13;;;;;;;15.19;66.03;101670.69;4897337;29;20120;-90
2021/11/06 09:21:39;;;;;;;1.92;1.10;;;;;;;14.86;67.04;101662.22;4887913;29;20036;-96
2021/11/06 09:24:04;;;;;;;4.30;1.00;;;;;;;15.30;65.76;101649.59;4936364;23;20055;-96
2021/11/06 09:26:36;;;;;;;5.95;1.13;;;;;;;15.03;66.87;101639.13;4945019;23;20015;-96
2021/11/06 09:29:03;;;;;;;5.30;1.33;;;;;;;14.91;67.02;101640.78;4907075;29;20029;-95
2021/11/06 09:31:29;;;;;;;5.75;1.35;;;;;;;15.24;66.34;101631.50;4894889;29;20033;-96
2021/11/06 09:33:57;;;;;;;2.47;1.17;;;;;;;15.61;65.42;101631.63;4883712;29;20097;-96
2021/11/06 09:36:23;;;;;;;3.38;1.23;;;;;;;15.93;64.65;101639.13;4876828;29;20532;-93
2021/11/06 09:38:49;;;;;;;2.28;1.08;;;;;;;15.92;64.88;101637.47;4875970;29;20097;-96
2021/11/06 09:41:17;;;;;;;5.57;1.35;;;;;;;16.49;64.87;101638.63;4965855;23;20482;-96
2021/11/06 09:43:45;;;;;;;2.25;1.50;;;;;;;17.11;63.44;101635.78;4883575;29;20033;-96
2021/11/06 09:46:10;;;;;;;5.13;1.52;;;;;;;17.48;61.66;101642.75;4883399;29;20037;-95
2021/11/06 09:48:38;;;;;;;3.95;0.93;;;;;;;16.65;62.42;101644.53;4886371;29;20132;-96
2021/11/06 09:51:04;;;;;;;5.45;1.20;;;;;;;16.71;61.98;101641.41;4885401;29;20112;-96
2021/11/06 09:53:32;;;;;;;3.42;1.40;;;;;;;16.88;61.37;101634.88;4884579;29;20199;-93
2021/11/06 09:55:58;;;;;;;4.07;1.00;;;;;;;17.08;60.21;101624.56;4883098;29;20037;-95
2021/11/06 09:58:24;;;;;;;1.88;1.00;;;;;;;16.88;61.02;101621.59;4883506;29;20033;-91
2021/11/06 10:00:51;;;;;;;3.92;0.90;;;;;;;16.76;61.74;101639.25;4883272;29;20047;-91
2021/11/06 10:03:17;;;;;;;6.57;1.02;;;;;;;16.74;61.74;101627.06;4896466;29;20067;-91
2021/11/06 10:05:57;;;;;;;2.50;0.80;;;;;;;16.77;61.44;101613.59;4887439;29;20037;-93
2021/11/06 10:08:38;;;;;;;2.53;0.90;;;;;;;17.14;60.88;101621.44;4887977;29;20041;-96
2021/11/06 10:11:17;;;;;;;3.15;1.02;;;;;;;16.56;63.04;101613.38;4883067;29;20040;-94
2021/11/06 10:14:05;;;;;;;3.55;0.90;;;;;;;17.37;60.96;101615.19;4883485;29;20092;-94
2021/11/06 10:16:36;;;;;;;5.10;0.80;;;;;;;17.58;60.22;101607.38;4866987;29;20041;-95
2021/11/06 10:19:10;;;;;;;4.10;0.70;;;;;;;17.74;60.14;101601.69;4881485;29;20041;-94
2021/11/06 10:21:39;;;;;;;4.57;0.77;;;;;;;17.44;60.17;101595.19;4883526;29;20040;-95
2021/11/06 10:24:05;;;;;;;2.38;0.95;;;;;;;17.41;60.56;101594.56;4884931;29;20029;-93
2021/11/06 10:26:31;;;;;;;2.53;0.70;;;;;;;17.44;59.83;101595.19;4881801;29;20033;-94
2021/11/06 10:29:09;;;;;;;2.83;0.75;;;;;;;17.42;60.26;101597.13;4887940;29;20047;-94
2021/11/06 10:31:55;;;;;;;3.25;1.02;;;;;;;17.03;60.70;101596.56;4887486;29;20604;-94
2021/11/06 10:34:26;;;;;;;1.83;0.73;;;;;;;17.15;60.89;101588.63;4885545;29;20033;-96
2021/11/06 10:37:12;;;;;;;4.28;0.80;;;;;;;17.09;60.97;101578.50;4887458;29;20039;-95
2021/11/06 10:39:59;;;;;;;2.03;0.43;;;;;;;17.13;61.09;101574.66;4901168;29;20119;-95
2021/11/06 10:42:25;;;;;;;0.93;0.40;;;;;;;16.90;61.47;101568.44;4900001;29;20032;-92
2021/11/06 10:45:08;;;;;;;2.38;0.77;;;;;;;16.78;61.92;101560.41;4899724;29;20032;-94
2021/11/06 10:47:58;;;;;;;4.78;0.88;;;;;;;17.11;61.95;101550.03;4882136;29;20033;-94
2021/11/06 10:50:43;;;;;;;1.77;0.57;;;;;;;16.48;62.80;101546.81;4954375;23;20068;-95
2021/11/06 10:53:11;;;;;;;3.22;0.52;;;;;;;15.89;64.11;101544.97;4889426;29;20028;-96
2021/11/06 10:55:39;;;;;;;3.80;0.70;;;;;;;16.58;62.87;101539.88;4906841;29;20019;-96
2021/11/06 10:58:19;;;;;;;4.05;1.10;;;;;;;16.85;62.21;101532.50;4916148;29;20024;-95
2021/11/06 11:00:51;;;;;;;4.15;0.95;;;;;;;16.41;63.57;101536.69;4925476;23;20045;-96
2021/11/06 11:03:31;;;;;;;1.52;0.55;;;;;;;16.44;62.84;101535.59;4888426;29;20040;-96
2021/11/06 11:05:58;;;;;;;0.85;0.57;;;;;;;16.29;63.87;101519.06;4880767;29;20037;-95
2021/11/06 11:08:24;;;;;;;3.50;0.50;;;;;;;16.55;62.95;101501.19;4881623;29;20036;-96
2021/11/06 11:10:50;;;;;;;3.97;0.80;;;;;;;16.60;62.69;101514.91;4883405;29;20021;-96
2021/11/06 11:13:21;;;;;;;2.80;0.60;;;;;;;16.98;60.85;101508.53;4884731;29;20065;-96
2021/11/06 11:15:49;;;;;;;2.38;0.47;;;;;;;17.25;60.60;101502.03;4883671;29;20029;-96
2021/11/06 11:18:38;;;;;;;1.25;0.28;;;;;;;16.89;62.22;101498.63;4891922;29;20111;-95
2021/11/06 11:21:11;;;;;;;0.65;0.30;;;;;;;16.53;62.69;101502.25;4878935;29;20502;-94
2021/11/06 11:23:41;;;;;;;1.63;0.50;;;;;;;17.03;61.24;101503.69;4882053;29;20388;-92
2021/11/06 11:26:06;;;;;;;3.30;0.80;;;;;;;16.84;62.12;101506.09;4879043;29;20033;-94
2021/11/06 11:28:32;;;;;;;2.60;0.70;;;;;;;16.73;61.63;101488.31;4880401;29;20085;-96
2021/11/06 11:30:57;;;;;;;1.65;0.35;;;;;;;16.87;60.63;101489.13;4891375;29;20044;-96
2021/11/06 11:33:23;;;;;;;3.45;0.60;;;;;;;16.43;62.85;101475.63;4883795;29;20100;-94
2021/11/06 11:35:50;;;;;;;0.98;0.40;;;;;;;16.67;62.09;101480.84;4894661;29;20037;-95
2021/11/06 11:38:18;;;;;;;3.42;0.52;;;;;;;16.72;62.15;101485.78;4892757;29;20021;-95
2021/11/06 11:41:11;;;;;;;4.93;0.40;;;;;;;16.94;61.42;101480.56;4893426;29;20029;-96
2021/11/06 11:43:52;;;;;;;2.28;0.38;;;;;;;17.08;60.80;101481.28;4880027;29;20025;-95
2021/11/06 11:46:26;;;;;;;1.98;0.30;;;;;;;16.71;61.30;101489.41;4884656;29;20025;-94
2021/11/06 11:48:54;;;;;;;4.80;0.70;;;;;;;16.52;62.52;101474.06;4885844;29;20021;-96
2021/11/06 11:51:30;;;;;;;2.60;0.50;;;;;;;17.08;61.26;101481.28;4889116;29;20029;-95
2021/11/06 11:54:05;;;;;;;3.85;0.90;;;;;;;16.87;61.64;101475.84;4874492;29;20029;-95
2021/11/06 11:56:32;;;;;;;1.52;0.57;;;;;;;16.90;60.87;101460.50;4881345;29;20133;-96
2021/11/06 11:59:02;;;;;;;1.20;0.40;;;;;;;16.75;61.63;101464.34;4876612;29;20104;-96
2021/11/06 12:01:28;;;;;;;3.50;0.47;;;;;;;17.01;61.11;101444.59;4871435;29;20108;-95
2021/11/06 12:03:56;;;;;;;8.95;1.15;;;;;;;16.85;61.60;101434.34;4893610;29;20073;-96
2021/11/06 12:06:37;;;;;;;2.92;0.60;;;;;;;16.59;62.19;101446.97;4881849;29;20029;-93
2021/11/06 12:09:03;;;;;;;3.05;0.80;;;;;;;17.00;60.66;101448.25;4875841;29;20029;-93
2021/11/06 12:11:31;;;;;;;6.80;0.68;;;;;;;16.71;62.22;101442.53;4881165;29;20033;-95
2021/11/06 12:13:58;;;;;;;3.83;0.70;;;;;;;16.65;61.97;101433.22;4881980;29;20025;-95
2021/11/06 12:16:56;;;;;;;4.10;0.90;;;;;;;16.64;62.43;101439.47;4889164;29;20032;-96
2021/11/06 12:19:42;;;;;;;2.10;0.57;;;;;;;16.87;61.52;101439.56;4974047;23;20052;-96
2021/11/06 12:22:18;;;;;;;1.85;0.70;;;;;;;17.24;60.59;101448.09;4886760;29;20036;-94
2021/11/06 12:24:47;;;;;;;1.90;0.68;;;;;;;17.11;60.79;101446.53;4889897;29;20029;-94
2021/11/06 12:27:14;;;;;;;1.70;0.68;;;;;;;17.52;60.17;101431.78;4898203;29;20064;-92
2021/11/06 12:29:47;;;;;;;2.92;0.60;;;;;;;17.25;60.49;101409.13;4906424;29;20056;-92
2021/11/06 12:32:19;;;;;;;1.35;0.60;;;;;;;17.44;59.78;101424.44;4891557;29;20028;-93
2021/11/06 12:34:50;;;;;;;3.17;0.90;;;;;;;17.38;60.01;101420.44;4883628;29;20032;-94
2021/11/06 12:37:34;;;;;;;;;;;;;;;16.71;61.79;101428.41;4889258;29;20037;-92
2021/11/06 12:40:02;;;;;;;0.93;0.60;;;;;;;17.18;60.91;101421.19;4909211;29;19915;-94
2021/11/06 12:42:29;;;;;;;3.28;0.63;;;;;;;17.05;60.55;101416.03;4903797;29;20028;-94
2021/11/06 12:45:15;;;;;;;2.53;0.70;;;;;;;17.54;59.61;101398.81;4900237;29;20016;-96
2021/11/06 12:48:05;;;;;;;1.63;0.55;;;;;;;16.70;61.65;101421.41;4902979;29;20084;-95
2021/11/06 12:50:31;;;;;;;5.45;0.95;;;;;;;17.16;60.49;101407.19;4884262;29;20029;-95
2021/11/06 13:00:36;;;;;;;3.42;0.47;;;;;;;17.84;59.03;101352.97;4944251;23;20061;-96
2021/11/06 13:03:02;;;;;;;0.82;0.50;;;;;;;17.42;59.35;101349.38;4891345;29;20081;-96
2021/11/06 13:05:41;;;;;;;3.33;0.65;;;;;;;17.41;59.68;101347.66;4886998;29;20029;-95
2021/11/06 13:08:18;;;;;;;5.05;0.80;;;;;;;16.96;60.60;101345.13;5098909;23;20060;-93
2021/11/06 13:10:45;;;;;;;4.35;0.60;;;;;;;17.51;59.69;101340.63;4882381;29;20033;-94
2021/11/06 13:13:25;;;;;;;2.58;0.68;;;;;;;17.20;60.97;101342.28;4872646;29;20113;-94
2021/11/06 13:15:52;;;;;;;3.90;1.30;;;;;;;17.34;59.89;101334.06;4864703;29;20093;-93
2021/11/06 13:18:19;;;;;;;3.58;0.60;;;;;;;17.21;60.61;101344.81;4865323;29;20025;-92
2021/11/06 13:20:46;;;;;;;2.60;0.47;;;;;;;17.13;60.80;101346.44;4865787;29;20029;-95
2021/11/06 13:23:13;;;;;;;1.67;0.55;;;;;;;17.62;59.81;101353.03;4865793;29;20029;-94
2021/11/06 13:25:44;;;;;;;0.73;0.52;;;;;;;17.77;59.21;101345.59;4869617;29;20025;-96
2021/11/06 13:28:26;;;;;;;3.95;0.70;;;;;;;17.56;59.51;101349.06;4872760;29;20061;-96
2021/11/06 13:30:54;;;;;;;;;;;;;;;18.39;57.84;101352.75;4871180;29;20057;-95
2021/11/06 13:33:33;;;;;;;1.90;0.80;;;;;;;18.21;57.90;101343.69;4865432;29;20378;-95
2021/11/06 13:36:00;;;;;;;1.42;0.38;;;;;;;17.51;58.17;101345.09;4882366;29;20077;-96
2021/11/06 13:38:57;;;;;;;1.52;0.30;;;;;;;18.15;57.45;101344.22;4881680;29;20069;-95
2021/11/06 13:41:29;;;;;;;1.85;0.45;;;;;;;17.20;58.23;101350.25;4879550;29;20025;-96
2021/11/06 13:43:56;;;;;;;;;;;;;;;18.22;56.15;101359.50;4875438;29;20048;-95